Hauptseite
METAR-TAF:

METAR-TAF

Flughäfen :

Yap, Yap Island, Mikronesien

Breite: 09-29N, Länge: 138-05E, Höhe: 28 m

Beobachtung

Neuester Wetterbericht von vor 19 Minuten, um 03:53 UTC
Wind 7 kt aus Süd/Südost
Temperatur 29°C
Luftfeuchtigkeit 84%
Luftdruck 1008 hPa
Sichtweite: 19.3 km
Aufgelockert bewölkt in der Höhe von 1600 ft, Towering cumulus.
Durchbrochene Bewölkung in der Höhe von 13000 ft
Durchbrochene Bewölkung in der Höhe von 30000 ft

METAR: PTYA 260353Z 15007KT 12SM SCT016TCU BKN130 BKN300 29/26 A2978 RMK SHRAB00E20 TCU SE-SW SLP084 T02880264

Zeit: 14:12 (04:12 UTC)

Prognose

Neuester Wetterbericht von vor 4 Stunden und 28 Minuten, um 23:44 UTC
Gültige Prognose vom 26 um 00 UTC bis 26 um 24 UTC
Wind 10 kt aus Süd
Sichtweite: 10 km
Aufgelockert bewölkt in der Höhe von 1600 ft
Durchbrochene Bewölkung in der Höhe von 14000 ft
Schauer in der Nähe

TAF: PTYA 252344Z 2600/2624 19010KT P6SM VCSH SCT016 BKN140

Wetterbeobachtungen und Prognosen von mehr als 4000 Flughäfen (METAR und TAF Bericht).

Die verfügbaren Stationen werden durch gelbe und rote Markierungen auf der Karte dargestellt.

Führen Sie die Maus auf sie, um den Namen der Station zu sehen.

Darauf klicken, um die Beobachtung von Wetterbeobachtungen und Prognosen zu sehen.

Um die Karte zu ändern : klicken Sie auf den grünen Tasten mit einem schwarzen Kreuz Zum Vergrößern, auf den grünen Button mit einem Gedankenstrich zu verkleinern, oder auf die grünen Pfeile für benachbarte Karten.


METAR-TAF: